Latest Coastal Weather Observations for Minlaton Airport

IDS60701

Issued at 8:11 pm CST Sunday 24 July 2016 (issued every 10 minutes, with the page automatically refreshed every 10 minutes)

About coastal observations | Map of coastal stations | Coastal observations for SA | Marine services | Other Formats
Station Details ID: 022031 Name: MINLATON AERO Lat: -34.75 Lon: 137.53 Height: 32.0 m
Data from the previous 72 hours. | See also: Recent months at Minlaton Airport
Date/Time
CST
Temp
°C
Wind Pressure Rain since
9am
mm
Weather Cloud Vis
km
Sea
Height
m
Swell
Dir  Spd
kts
Gust
kts
hPa Trend Height
m
Period
s
Dir
24/08:00pm 10.2 W 25 33 1012.6 - 3.2 - - - - - - -
24/07:30pm 10.8 W 24 34 1012.3 - 3.2 - - - - - - -
24/07:13pm 10.6 WSW 24 34 1011.9 - 3.2 - - - - - - -
24/07:00pm 11.9 W 27 36 1011.7 - 3.0 - - - - - - -
24/06:30pm 11.2 W 27 37 1011.3 - 3.0 - - - - - - -
24/06:18pm 11.2 W 25 35 1011.1 - 3.0 - - - - - - -
24/06:00pm 10.9 W 27 36 1010.7 - 3.0 Recent precip. - - - - - -
24/05:31pm 11.4 W 28 42 1010.3 - 2.8 - - - - - - -
24/05:30pm 11.6 W 27 36 1010.2 - 2.8 - - - - - - -
24/05:00pm 11.9 W 29 39 1009.7 - 2.8 - - - - - - -
24/04:30pm 11.8 W 30 44 1009.4 - 2.8 - - - - - - -
24/04:00pm 12.9 W 29 41 1008.8 - 2.8 - - - - - - -
24/03:43pm 12.1 W 24 34 1008.7 - 2.8 - - - - - - -
24/03:30pm 12.2 WNW 29 38 1008.6 - 2.8 - - - - - - -
24/03:00pm 13.0 WNW 26 37 1008.5 - 2.8 - - - - - - -
24/02:43pm 12.6 WNW 25 37 1008.3 - 2.8 - - - - - - -
24/02:30pm 12.2 WNW 24 32 1008.4 - 2.8 - - - - - - -
24/02:03pm 11.4 WNW 21 32 1008.3 - 2.8 - - - - - - -
24/02:00pm 11.1 WNW 20 25 1008.5 - 2.8 - - - - - - -
24/01:30pm 10.8 WNW 23 33 1008.3 - 2.6 - - - - - - -
24/01:19pm 9.1 W 26 40 1008.5 - 2.6 - - - - - - -
24/01:12pm 7.5 W 29 43 1008.6 - 2.6 - - - - - - -
24/01:10pm 7.3 W 28 43 1008.6 - 2.4 - - - - - - -
24/01:08pm 11.5 WNW 25 40 1008.4 - 1.8 - - - - - - -
24/01:00pm 12.8 WNW 24 32 1008.3 - 1.8 - - - - - - -
24/12:30pm 12.3 W 26 35 1008.6 - 1.8 - - - - - - -
24/12:08pm 11.9 W 27 37 1008.8 - 1.8 - - - - - - -
24/12:00pm 11.3 W 28 35 1008.7 - 1.8 - - - - - - -
24/11:30am 11.2 WNW 24 32 1008.7 - 1.8 - - - - - - -
24/11:09am 10.4 WNW 21 33 1008.6 - 1.8 - - - - - - -
24/11:00am 9.6 WNW 21 27 1008.7 - 1.8 - - - - - - -
24/10:37am 9.1 WNW 25 41 1009.1 - 1.6 - - - - - - -
24/10:30am 10.4 WNW 22 28 1008.6 - 1.4 - - - - - - -
24/10:00am 9.2 NW 21 28 1008.1 - 1.4 - - - - - - -
24/09:45am 8.6 WNW 17 24 1008.2 - 1.4 - - - - - - -
24/09:30am 6.9 W 22 29 1008.4 - 1.0 - - - - - - -
24/09:17am 7.3 W 23 44 1008.3 - 0.4 - - - - - - -
24/09:00am 8.5 W 23 31 1008.0 - 4.8 Rain - - - - - -
24/08:56am 8.5 W 21 31 1008.0 - 4.8 - - - - - - -
24/08:39am 8.4 WNW 26 36 1007.8 - 4.2 - - - - - - -
24/08:30am 9.5 WNW 27 37 1007.6 - 3.6 - - - - - - -
24/08:03am 10.1 NNW 25 35 1007.1 - 2.2 - - - - - - -
24/08:00am 10.1 NNW 27 35 1007.1 - 2.2 - - - - - - -
24/07:30am 10.2 NNW 26 34 1007.3 - 2.2 - - - - - - -
24/07:09am 10.1 NNW 26 37 1007.4 - 2.0 - - - - - - -
24/07:00am 10.6 NNW 25 34 1007.4 - 2.0 - - - - - - -
24/06:30am 10.1 NNW 25 35 1007.6 - 2.0 - - - - - - -
24/06:23am 10.3 NNW 23 35 1007.7 - 2.0 - - - - - - -
24/06:00am 10.3 NNW 22 29 1008.0 - 2.0 Recent precip. - - - - - -
24/05:30am 10.0 NNW 22 27 1008.1 - 2.0 - - - - - - -
24/05:02am 9.9 NNW 20 30 1008.4 - 1.6 - - - - - - -
24/05:00am 9.8 NNW 20 28 1008.4 - 1.4 - - - - - - -
24/04:30am 9.5 NNW 23 33 1008.8 - 1.2 - - - - - - -
24/04:13am 9.7 NNW 22 33 1009.0 - 1.0 - - - - - - -
24/04:00am 9.9 NNW 20 25 1009.3 - 1.0 - - - - - - -
24/03:30am 8.2 N 14 19 1010.0 - 1.0 - - - - - - -
24/03:00am 7.2 N 13 15 1010.6 - 1.0 - - - - - - -
24/02:30am 6.7 N 12 15 1011.0 - 1.0 - - - - - - -
24/02:00am 6.8 N 12 15 1011.4 - 1.0 - - - - - - -
24/01:30am 6.5 NNE 11 13 1011.7 - 1.0 - - - - - - -
24/01:00am 6.3 N 12 14 1012.2 - 1.0 - - - - - - -
24/12:30am 6.2 N 12 14 1012.9 - 1.0 - - - - - - -
24/12:00am 6.0 N 11 13 1013.6 - 1.0 - - - - - - -
 
Date/Time
CST
Temp
°C
Wind Pressure Rain since
9am
mm
Weather Cloud Vis
km
Sea
Height
m
Swell
Dir  Spd
kts
Gust
kts
hPa Trend Height
m
Period
s
Dir
23/11:30pm 6.1 N 11 13 1014.0 - 1.0 - - - - - - -
23/11:00pm 5.9 N 9 11 1014.2 - 1.0 - - - - - - -
23/10:30pm 6.3 N 10 12 1014.3 - 1.0 - - - - - - -
23/10:00pm 6.9 N 10 11 1014.7 - 1.0 - - - - - - -
23/09:30pm 7.1 N 10 11 1015.0 - 1.0 - - - - - - -
23/09:00pm 5.7 NNE 9 11 1015.0 - 1.0 - - - - - - -
23/08:30pm 5.6 NNE 9 10 1015.1 - 1.0 - - - - - - -
23/08:00pm 5.9 N 9 10 1015.2 - 1.0 - - - - - - -
23/07:30pm 5.9 NNE 8 9 1015.3 - 1.0 - - - - - - -
23/07:00pm 5.9 NNE 9 9 1015.3 - 1.0 - - - - - - -
23/06:30pm 6.3 N 8 8 1015.2 - 1.0 - - - - - - -
23/06:00pm 7.0 N 7 8 1015.0 - 1.0 - - - - - - -
23/05:30pm 7.9 N 7 7 1015.0 - 1.0 - - - - - - -
23/05:00pm 9.9 NNW 5 6 1015.0 - 1.0 - - - - - - -
23/04:30pm 9.8 W 6 10 1015.1 - 1.0 - - - - - - -
23/04:00pm 10.8 WNW 8 9 1015.1 - 0.2 - - - - - - -
23/03:30pm 11.4 WNW 8 10 1015.1 - 0.2 - - - - - - -
23/03:00pm 11.3 WNW 8 11 1015.2 - 0.2 - - - - - - -
23/02:30pm 11.7 W 8 11 1015.1 - 0.2 - - - - - - -
23/02:00pm 12.0 WNW 10 13 1015.2 - 0.2 - - - - - - -
23/01:30pm 11.4 NNW 5 7 1015.1 - 0.2 - - - - - - -
23/01:00pm 9.9 W 10 13 1015.4 - 0.0 - - - - - - -
23/12:30pm 11.5 WSW 10 14 1015.4 - 0.0 - - - - - - -
23/12:00pm 12.2 WSW 6 10 1015.5 - 0.0 - - - - - - -
23/11:30am 11.1 WSW 10 15 1015.9 - 0.0 - - - - - - -
23/11:00am 11.4 SW 6 8 1015.8 - 0.0 - - - - - - -
23/10:30am 11.5 SSW 6 9 1015.6 - 0.0 - - - - - - -
23/10:00am 11.0 SSW 8 10 1015.4 - 0.0 - - - - - - -
23/09:30am 10.1 SW 7 10 1015.1 - 0.0 - - - - - - -
23/09:00am 9.7 SW 6 8 1014.6 - 1.0 - - - - - - -
23/08:30am 9.1 SW 7 8 1014.3 - 1.0 - - - - - - -
23/08:00am 8.2 SW 5 6 1013.8 - 1.0 - - - - - - -
23/07:30am 7.2 SSW 6 8 1013.3 - 1.0 - - - - - - -
23/07:00am 6.4 SSW 6 7 1012.8 - 1.0 - - - - - - -
23/06:30am 6.7 SSE 6 7 1012.3 - 1.0 - - - - - - -
23/06:00am 6.8 S 5 7 1011.9 - 1.0 - - - - - - -
23/05:30am 6.3 SSW 5 6 1011.4 - 1.0 - - - - - - -
23/05:00am 7.1 SSW 7 9 1010.9 - 1.0 - - - - - - -
23/04:30am 8.1 SW 9 10 1010.5 - 1.0 - - - - - - -
23/04:00am 9.1 SW 9 12 1010.2 - 1.0 - - - - - - -
23/03:30am 8.7 SW 9 10 1010.0 - 1.0 - - - - - - -
23/03:00am 9.0 SW 10 14 1009.9 - 1.0 Rain - - - - - -
23/02:30am 10.7 WSW 14 19 1009.7 - 0.8 - - - - - - -
23/02:00am 10.0 WSW 13 16 1009.3 - 0.8 - - - - - - -
23/01:30am 9.7 WSW 15 19 1009.2 - 0.8 - - - - - - -
23/01:00am 10.3 WSW 18 24 1008.8 - 0.8 - - - - - - -
23/12:32am 10.5 WSW 19 29 1008.4 - 0.8 - - - - - - -
23/12:30am 10.3 WSW 18 26 1008.4 - 0.8 - - - - - - -
23/12:00am 10.8 WSW 25 36 1008.1 - 0.8 - - - - - - -
 
Date/Time
CST
Temp
°C
Wind Pressure Rain since
9am
mm
Weather Cloud Vis
km
Sea
Height
m
Swell
Dir  Spd
kts
Gust
kts
hPa Trend Height
m
Period
s
Dir
22/11:49pm 11.8 WSW 24 37 1007.8 - 0.8 - - - - - - -
22/11:30pm 11.3 WSW 23 31 1007.4 - 0.8 - - - - - - -
22/11:01pm 10.7 W 25 35 1007.1 - 0.8 - - - - - - -
22/11:00pm 10.7 W 26 35 1007.1 - 0.8 - - - - - - -
22/10:31pm 11.3 W 29 39 1006.5 - 0.8 - - - - - - -
22/10:30pm 11.4 W 29 38 1006.5 - 0.8 - - - - - - -
22/10:00pm 11.5 W 26 34 1006.3 - 0.8 - - - - - - -
22/09:30pm 10.9 W 28 37 1005.7 - 0.8 - - - - - - -
22/09:04pm 11.3 W 32 42 1005.0 - 0.8 - - - - - - -
22/09:00pm 11.8 W 31 39 1005.0 - 0.8 - - - - - - -
22/08:35pm 11.2 W 29 39 1005.0 - 0.8 - - - - - - -
22/08:30pm 11.3 WNW 30 39 1004.9 - 0.8 - - - - - - -
22/08:00pm 11.3 W 33 45 1004.5 - 0.8 - - - - - - -
22/07:42pm 11.5 W 33 46 1004.2 - 0.8 - - - - - - -
22/07:41pm 11.6 W 32 46 1004.0 - 0.8 - - - - - - -
22/07:30pm 11.3 W 27 37 1004.1 - 0.8 - - - - - - -
22/07:00pm 11.5 W 29 40 1003.7 - 0.8 - - - - - - -
22/06:30pm 11.7 WNW 30 40 1003.1 - 0.8 - - - - - - -
22/06:04pm 11.3 W 27 41 1002.8 - 0.8 - - - - - - -
22/06:00pm 10.9 W 25 34 1002.8 - 0.8 - - - - - - -
22/05:30pm 12.2 WNW 28 41 1002.1 - 0.8 - - - - - - -
22/05:00pm 11.9 WNW 27 37 1001.7 - 0.8 - - - - - - -
22/04:42pm 11.7 WNW 26 36 1001.6 - 0.8 - - - - - - -
22/04:30pm 11.7 WNW 27 34 1001.6 - 0.8 - - - - - - -
22/04:00pm 11.3 WNW 29 42 1001.3 - 0.6 - - - - - - -
22/03:49pm 12.6 WNW 26 36 1001.3 - 0.6 - - - - - - -
22/03:30pm 13.0 WNW 26 33 1000.9 - 0.6 - - - - - - -
22/03:00pm 11.3 WNW 25 33 1000.9 - 0.4 Recent precip. - - - - - -
22/02:40pm 10.7 WNW 30 48 1001.5 - 0.2 - - - - - - -
22/02:38pm 10.9 WNW 30 48 1001.3 - 0.0 - - - - - - -
22/02:37pm 11.3 WNW 29 48 1001.1 - 0.0 - - - - - - -
22/02:35pm 13.5 WNW 25 41 1001.0 - 0.0 - - - - - - -
22/02:30pm 14.1 WNW 24 29 1000.7 - 0.0 - - - - - - -
22/02:00pm 14.1 NW 24 31 1000.6 - 0.0 - - - - - - -
22/01:51pm 13.8 NW 20 30 1000.6 - 0.0 - - - - - - -
22/01:30pm 14.5 NW 19 24 1000.7 - 0.0 - - - - - - -
22/01:00pm 14.5 NW 18 22 1000.8 - 0.0 - - - - - - -
22/12:30pm 12.9 NW 19 26 1001.6 - 0.0 - - - - - - -
22/12:00pm 14.1 NW 16 20 1001.7 - 0.0 - - - - - - -
22/11:30am 14.4 NW 17 22 1002.2 - 0.0 - - - - - - -
22/11:00am 14.7 NW 17 22 1002.6 - 0.0 - - - - - - -
22/10:30am 14.0 NW 16 20 1003.1 - 0.0 - - - - - - -
22/10:00am 13.7 NW 17 21 1003.2 - 0.0 - - - - - - -
22/09:30am 13.6 NW 19 26 1003.3 - 0.0 - - - - - - -
22/09:00am 13.6 NW 17 22 1003.5 - 0.0 - - - - - - -
22/08:30am 13.4 NW 17 21 1003.3 - 0.0 - - - - - - -
22/08:00am 13.3 NW 16 21 1003.3 - 0.0 - - - - - - -
22/07:30am 13.3 NW 15 21 1003.3 - 0.0 - - - - - - -
22/07:00am 13.3 NNW 15 20 1003.3 - 0.0 - - - - - - -
22/06:30am 13.4 NW 14 18 1003.4 - 0.0 - - - - - - -
22/06:00am 13.4 NW 12 15 1003.3 - 0.0 - - - - - - -
22/05:30am 13.7 NW 13 17 1003.2 - 0.0 - - - - - - -
22/05:00am 13.8 NW 16 19 1003.3 - 0.0 - - - - - - -
22/04:30am 13.9 NW 15 19 1003.2 - 0.0 - - - - - - -
22/04:00am 14.0 NW 14 18 1003.2 - 0.0 - - - - - - -
22/03:30am 14.1 NW 15 18 1003.7 - 0.0 - - - - - - -
22/03:00am 14.0 NW 15 21 1003.5 - 0.0 - - - - - - -
22/02:30am 13.9 NNW 13 15 1004.0 - 0.0 - - - - - - -
22/02:00am 14.0 NNW 13 16 1003.9 - 0.0 - - - - - - -
22/01:30am 14.1 NNW 12 15 1003.9 - 0.0 - - - - - - -
22/01:00am 14.1 NNW 10 11 1004.2 - 0.0 - - - - - - -
22/12:30am 14.2 NNW 9 12 1004.7 - 0.0 - - - - - - -
22/12:00am 14.2 NW 9 11 1004.9 - 0.0 - - - - - - -
 
Date/Time
CST
Temp
°C
Wind Pressure Rain since
9am
mm
Weather Cloud Vis
km
Sea
Height
m
Swell
Dir  Spd
kts
Gust
kts
hPa Trend Height
m
Period
s
Dir
21/11:30pm 14.8 WNW 11 13 1005.2 - 0.0 - - - - - - -
21/11:00pm 15.0 WNW 11 16 1005.5 - 0.0 - - - - - - -
21/10:30pm 15.4 WNW 10 13 1004.9 - 0.0 - - - - - - -
21/10:00pm 15.9 WNW 11 15 1005.1 - 0.0 - - - - - - -
21/09:30pm 17.2 NW 17 22 1005.0 - 0.0 - - - - - - -
21/09:13pm 18.1 NW 19 33 1004.7 - 0.0 - - - - - - -
21/09:11pm 17.7 NNW 18 27 1004.7 - 0.0 - - - - - - -
21/09:00pm 19.8 N 19 23 1003.7 - 0.0 - - - - - - -
21/08:30pm 19.7 N 17 22 1003.9 - 0.0 - - - - - - -

Other Formats:

Comma delimited format used in spreadsheet applications
http://www.bom.gov.au/fwo/IDS60701/IDS60701.95659.axf

JavaScript Object Notation format (JSON) in row-major order
http://www.bom.gov.au/fwo/IDS60701/IDS60701.95659.json